createdAt,value
2023-02-11T00:01:36.458Z,20.43
2023-02-11T00:04:07.323Z,20.92
2023-02-11T00:06:35.999Z,21.53
2023-02-11T00:09:04.815Z,21.23
2023-02-11T00:11:34.955Z,20.90
2023-02-11T00:14:06.144Z,20.60
2023-02-11T00:16:33.429Z,20.27
2023-02-11T00:19:02.440Z,19.20
2023-02-11T00:21:29.829Z,22.33
2023-02-11T00:23:59.767Z,19.73
2023-02-11T00:26:31.335Z,21.63
2023-02-11T00:29:02.938Z,21.17
2023-02-11T00:31:30.272Z,20.30
2023-02-11T00:33:57.569Z,20.33
2023-02-11T00:36:28.040Z,21.20
2023-02-11T00:38:57.227Z,20.63
2023-02-11T00:41:24.532Z,21.27
2023-02-11T00:43:52.068Z,20.10
2023-02-11T00:46:19.547Z,20.27
2023-02-11T00:48:46.940Z,21.93
2023-02-11T00:51:14.374Z,19.80
2023-02-11T00:53:41.546Z,18.53
2023-02-11T00:56:09.360Z,21.80
2023-02-11T00:58:37.010Z,21.73
2023-02-11T01:01:07.933Z,21.93
2023-02-11T01:03:35.422Z,21.67
2023-02-11T01:06:03.046Z,21.37
2023-02-11T01:08:30.282Z,21.07
2023-02-11T01:11:04.479Z,22.50
2023-02-11T01:13:37.391Z,20.77
2023-02-11T01:16:07.863Z,20.73
2023-02-11T01:18:35.787Z,19.27
2023-02-11T01:21:03.057Z,22.53
2023-02-11T01:23:30.366Z,21.97
2023-02-11T01:25:57.594Z,21.37
2023-02-11T01:28:28.149Z,21.70
2023-02-11T01:30:55.983Z,21.60
2023-02-11T01:33:24.001Z,21.27
2023-02-11T01:35:51.994Z,20.13
2023-02-11T01:38:26.178Z,21.97
2023-02-11T01:40:59.868Z,21.53
2023-02-11T01:43:30.694Z,19.47
2023-02-11T01:46:23.472Z,21.37
2023-02-11T01:49:01.342Z,20.00
2023-02-11T01:51:38.908Z,21.50
2023-02-11T01:54:27.341Z,21.77
2023-02-11T01:57:17.619Z,21.43
2023-02-11T02:00:22.593Z,20.67
2023-02-11T02:03:25.584Z,21.57
2023-02-11T02:06:07.975Z,20.67
2023-02-11T02:08:44.758Z,22.23
2023-02-11T02:11:12.308Z,21.73
2023-02-11T02:13:39.480Z,21.63
2023-02-11T02:16:15.151Z,21.30
2023-02-11T02:21:51.932Z,21.38
2023-02-11T02:24:47.286Z,20.93
2023-02-11T02:27:44.932Z,19.90
2023-02-11T02:30:33.462Z,21.90
2023-02-11T02:33:22.316Z,21.30
2023-02-11T02:36:23.428Z,20.17
2023-02-11T02:39:13.949Z,20.33
2023-02-11T02:41:42.293Z,21.90
2023-02-11T02:44:09.780Z,23.00
2023-02-11T02:46:37.321Z,23.13
2023-02-11T02:49:12.410Z,22.73
2023-02-11T02:51:51.085Z,21.73
2023-02-11T02:55:02.775Z,22.33
2023-02-11T02:57:30.475Z,25.33
2023-02-11T03:00:42.349Z,22.50
2023-02-11T03:03:47.820Z,21.00
2023-02-11T03:06:30.536Z,21.73
2023-02-11T03:09:11.471Z,22.00
2023-02-11T03:11:39.991Z,22.50
2023-02-11T03:14:11.121Z,22.57
2023-02-11T03:16:39.661Z,23.60
2023-02-11T03:19:26.332Z,24.23
2023-02-11T03:21:55.159Z,22.87
2023-02-11T03:24:36.751Z,23.60
2023-02-11T03:28:00.061Z,23.03
2023-02-11T03:30:47.368Z,21.93
2023-02-11T03:33:29.239Z,25.67
2023-02-11T03:36:03.720Z,23.27
2023-02-11T03:38:45.123Z,26.47
2023-02-11T03:41:15.468Z,24.93
2023-02-11T03:43:51.818Z,24.70
2023-02-11T03:46:34.186Z,26.10
2023-02-11T03:49:12.393Z,27.43
2023-02-11T03:51:43.102Z,27.80
2023-02-11T03:54:16.770Z,28.87
2023-02-11T03:56:56.272Z,28.10
2023-02-11T03:59:23.463Z,26.53
2023-02-11T04:01:51.003Z,26.70
2023-02-11T04:04:18.897Z,27.70
2023-02-11T04:06:46.316Z,27.50
2023-02-11T04:09:13.482Z,27.13
2023-02-11T04:11:40.648Z,27.97
2023-02-11T04:14:07.728Z,26.57
2023-02-11T04:16:34.933Z,26.77
2023-02-11T04:19:02.188Z,28.37
2023-02-11T04:21:29.355Z,27.37
2023-02-11T04:23:56.938Z,25.50
2023-02-11T04:26:24.106Z,26.27
2023-02-11T04:28:51.296Z,27.97
2023-02-11T04:31:18.596Z,27.97
2023-02-11T04:33:45.937Z,28.03
2023-02-11T04:36:13.304Z,26.77
2023-02-11T04:38:43.685Z,27.47
2023-02-11T04:41:10.827Z,29.27
2023-02-11T04:43:37.966Z,29.67
2023-02-11T04:46:05.455Z,27.17
2023-02-11T04:48:32.784Z,28.40
2023-02-11T04:50:59.892Z,27.83
2023-02-11T04:53:26.987Z,26.77
2023-02-11T04:55:54.513Z,27.73
2023-02-11T04:58:21.811Z,30.67
2023-02-11T05:00:49.054Z,28.20
2023-02-11T05:03:16.425Z,29.83
2023-02-11T05:05:43.843Z,29.83
2023-02-11T05:08:12.215Z,29.90
2023-02-11T05:10:47.299Z,30.33
2023-02-11T05:13:14.628Z,30.10
2023-02-11T05:15:41.732Z,28.97
2023-02-11T05:18:08.890Z,30.13
2023-02-11T05:20:39.123Z,29.13
2023-02-11T05:23:06.415Z,28.40
2023-02-11T05:25:34.049Z,28.77
2023-02-11T05:28:01.830Z,28.50
2023-02-11T05:30:29.062Z,28.80
2023-02-11T05:32:56.762Z,29.43
2023-02-11T05:35:24.685Z,27.83
2023-02-11T05:37:52.344Z,28.60
2023-02-11T05:40:22.167Z,26.40
2023-02-11T05:42:49.500Z,27.17
2023-02-11T05:45:17.217Z,25.70
2023-02-11T05:47:44.343Z,26.40
2023-02-11T05:50:11.590Z,26.60
2023-02-11T05:52:38.693Z,25.30
2023-02-11T05:55:06.516Z,25.23
2023-02-11T05:57:33.856Z,26.03
2023-02-11T06:00:01.098Z,26.83
2023-02-11T06:02:31.461Z,26.03
2023-02-11T06:04:58.625Z,25.23
2023-02-11T06:07:25.734Z,26.20
2023-02-11T06:09:53.091Z,27.20
2023-02-11T06:12:20.312Z,24.23
2023-02-11T06:14:47.397Z,25.63
2023-02-11T06:17:15.713Z,25.30
2023-02-11T06:19:43.038Z,25.37
2023-02-11T06:22:10.878Z,26.67
2023-02-11T06:24:59.871Z,25.97
2023-02-11T06:27:31.701Z,25.77
2023-02-11T06:29:58.951Z,25.17
2023-02-11T06:32:45.482Z,26.30
2023-02-11T06:35:14.823Z,25.13
2023-02-11T06:37:43.214Z,25.13
2023-02-11T06:40:11.904Z,25.80
2023-02-11T06:42:39.618Z,25.57
2023-02-11T06:45:10.864Z,25.73
2023-02-11T06:47:39.275Z,25.50
2023-02-11T06:50:08.928Z,26.43
2023-02-11T06:52:37.108Z,24.27
2023-02-11T06:55:05.240Z,26.33
2023-02-11T06:57:33.010Z,27.10
2023-02-11T07:00:00.132Z,27.70
2023-02-11T07:02:27.414Z,25.50
2023-02-11T07:04:54.545Z,27.00
2023-02-11T07:07:21.752Z,27.43
2023-02-11T07:09:48.922Z,25.23
2023-02-11T07:12:16.065Z,25.77
2023-02-11T07:14:43.316Z,25.10
2023-02-11T07:17:14.372Z,24.90
2023-02-11T07:19:41.790Z,23.70
2023-02-11T07:22:08.990Z,24.43
2023-02-11T07:24:36.348Z,24.10
2023-02-11T07:27:03.431Z,23.40
2023-02-11T07:29:30.564Z,23.77
2023-02-11T07:31:57.697Z,24.40
2023-02-11T07:34:25.541Z,24.27
2023-02-11T07:36:55.896Z,23.40
2023-02-11T07:39:27.345Z,24.07
2023-02-11T07:41:55.204Z,24.50
2023-02-11T07:44:22.842Z,23.97
2023-02-11T07:46:50.209Z,24.03
2023-02-11T07:49:17.656Z,23.57
2023-02-11T07:51:45.903Z,24.63
2023-02-11T07:54:13.355Z,23.42
2023-02-11T07:56:40.600Z,22.50
2023-02-11T07:59:07.808Z,22.50
2023-02-11T08:01:34.952Z,22.30
2023-02-11T08:04:03.644Z,23.97
2023-02-11T08:06:34.209Z,22.25
2023-02-11T08:09:09.642Z,22.27
2023-02-11T08:11:37.406Z,21.35
2023-02-11T08:14:04.611Z,21.23
2023-02-11T08:16:36.305Z,22.83
2023-02-11T08:19:08.307Z,21.35
2023-02-11T08:21:35.562Z,21.87
2023-02-11T08:24:07.095Z,21.83
2023-02-11T08:26:38.667Z,20.60
2023-02-11T08:29:14.919Z,20.70
2023-02-11T08:31:46.547Z,20.20
2023-02-11T08:34:18.388Z,19.73
2023-02-11T08:36:47.548Z,20.47
2023-02-11T08:39:23.014Z,19.27
2023-02-11T08:41:56.634Z,19.83
2023-02-11T08:44:26.513Z,19.73
2023-02-11T08:46:54.121Z,19.92
2023-02-11T08:49:22.266Z,18.93
2023-02-11T08:51:50.029Z,18.83
2023-02-11T08:54:17.885Z,19.80
2023-02-11T08:56:46.413Z,19.58
2023-02-11T08:59:17.171Z,18.50
2023-02-11T09:01:44.723Z,18.55
2023-02-11T09:04:12.307Z,19.17
2023-02-11T09:06:39.955Z,18.23
2023-02-11T09:09:10.187Z,18.73
2023-02-11T09:11:41.492Z,19.02
2023-02-11T09:14:15.187Z,20.50
2023-02-11T09:16:43.775Z,19.43
2023-02-11T09:19:11.846Z,18.40
2023-02-11T09:21:39.045Z,18.75
2023-02-11T09:24:09.645Z,17.63
2023-02-11T09:26:38.887Z,18.50
2023-02-11T09:29:06.465Z,19.13
2023-02-11T09:31:34.881Z,19.20
2023-02-11T09:34:06.368Z,18.70
2023-02-11T09:36:39.443Z,19.83
2023-02-11T09:39:18.477Z,20.45
2023-02-11T09:42:04.119Z,19.55
2023-02-11T09:44:36.966Z,19.52
2023-02-11T09:47:43.586Z,19.98
2023-02-11T09:50:19.517Z,18.73
2023-02-11T09:53:03.854Z,18.05
2023-02-11T09:55:43.119Z,18.10
2023-02-11T09:58:25.388Z,17.95
2023-02-11T10:01:21.839Z,18.25
2023-02-11T10:04:04.972Z,17.92
2023-02-11T10:07:05.253Z,19.27
2023-02-11T10:09:40.687Z,17.70
2023-02-11T10:12:37.537Z,17.75
2023-02-11T10:15:14.176Z,17.10
2023-02-11T10:18:10.685Z,17.30
2023-02-11T10:21:16.200Z,17.60
2023-02-11T10:23:51.714Z,17.58
2023-02-11T10:26:20.393Z,16.02
2023-02-11T10:28:55.696Z,17.00
2023-02-11T10:31:27.176Z,17.15
2023-02-11T10:34:14.594Z,15.45
2023-02-11T10:36:44.735Z,17.33
2023-02-11T10:39:23.811Z,16.00
2023-02-11T10:42:22.279Z,15.85
2023-02-11T10:45:02.498Z,14.45
2023-02-11T10:47:37.615Z,15.57
2023-02-11T10:50:28.798Z,16.02
2023-02-11T10:53:24.390Z,16.60
2023-02-11T10:55:57.508Z,17.13
2023-02-11T10:58:42.084Z,15.15
2023-02-11T11:01:23.469Z,15.68
2023-02-11T11:03:54.689Z,15.35
2023-02-11T11:06:33.722Z,16.38
2023-02-11T11:11:28.707Z,16.33
2023-02-11T11:14:01.212Z,16.08
2023-02-11T11:16:34.269Z,16.60
2023-02-11T11:19:07.651Z,15.00
2023-02-11T11:21:48.167Z,15.68
2023-02-11T11:24:31.353Z,15.15
2023-02-11T11:27:02.699Z,15.98
2023-02-11T11:29:52.117Z,14.38
2023-02-11T11:32:28.631Z,13.95
2023-02-11T11:35:08.541Z,15.15
2023-02-11T11:37:37.779Z,15.38
2023-02-11T11:40:27.468Z,14.85
2023-02-11T11:43:12.977Z,14.70
2023-02-11T11:45:52.127Z,15.27
2023-02-11T11:48:33.000Z,15.25
2023-02-11T11:51:05.209Z,12.93
2023-02-11T11:53:44.050Z,13.63
2023-02-11T11:56:24.415Z,13.07
2023-02-11T11:58:52.003Z,13.52
2023-02-11T12:01:57.125Z,13.52
2023-02-11T12:05:28.193Z,12.75
2023-02-11T12:08:12.314Z,11.52
2023-02-11T12:11:02.988Z,11.38
2023-02-11T12:14:00.159Z,12.00
2023-02-11T12:16:50.571Z,11.18
2023-02-11T12:19:56.498Z,10.90
2023-02-11T12:22:55.193Z,10.82
2023-02-11T12:25:55.089Z,12.15
2023-02-11T12:28:59.310Z,10.80
2023-02-11T12:31:40.416Z,9.70
2023-02-11T12:34:28.897Z,9.80
2023-02-11T12:37:18.564Z,8.70
2023-02-11T12:40:24.664Z,8.85
2023-02-11T12:43:17.721Z,8.35
2023-02-11T12:46:15.459Z,9.15
2023-02-11T12:49:09.731Z,10.82
2023-02-11T12:52:01.714Z,11.15
2023-02-11T12:55:02.593Z,10.20
2023-02-11T12:57:35.020Z,11.55
2023-02-11T13:00:51.319Z,12.13
2023-02-11T13:03:20.964Z,12.13
2023-02-11T13:06:17.875Z,11.23
2023-02-11T13:08:55.773Z,12.35
2023-02-11T13:11:57.260Z,12.77
2023-02-11T13:14:35.729Z,11.90
2023-02-11T13:17:17.954Z,13.18
2023-02-11T13:19:58.309Z,12.13
2023-02-11T13:22:53.983Z,13.10
2023-02-11T13:25:45.260Z,13.45
2023-02-11T13:28:37.517Z,12.32
2023-02-11T13:31:08.111Z,12.95
2023-02-11T13:33:43.316Z,13.55
2023-02-11T13:36:14.153Z,13.43
2023-02-11T13:38:51.460Z,14.00
2023-02-11T13:41:35.256Z,14.00
2023-02-11T13:44:11.843Z,14.20
2023-02-11T13:47:07.851Z,15.02
2023-02-11T13:49:49.424Z,14.38
2023-02-11T13:52:39.640Z,14.82
2023-02-11T13:55:23.265Z,15.02
2023-02-11T13:58:18.279Z,14.70
2023-02-11T14:00:51.362Z,13.18
2023-02-11T14:03:57.512Z,15.57
2023-02-11T14:06:48.238Z,13.60
2023-02-11T14:09:17.507Z,13.77
2023-02-11T14:11:50.837Z,13.20
2023-02-11T14:14:33.704Z,12.88
2023-02-11T14:17:07.512Z,13.00
2023-02-11T14:19:44.543Z,12.07
2023-02-11T14:22:22.289Z,12.77
2023-02-11T14:25:02.262Z,13.40
2023-02-11T14:27:30.134Z,12.80
2023-02-11T14:30:31.775Z,11.93
2023-02-11T14:33:27.387Z,12.15
2023-02-11T14:36:44.009Z,11.73
2023-02-11T14:39:31.370Z,12.82
2023-02-11T14:42:03.048Z,12.15
2023-02-11T14:44:33.675Z,12.68
2023-02-11T14:47:01.263Z,11.85
2023-02-11T14:49:39.468Z,12.48
2023-02-11T14:52:39.012Z,11.02
2023-02-11T14:55:31.383Z,12.13
2023-02-11T14:58:20.100Z,11.50
2023-02-11T15:01:07.022Z,10.50
2023-02-11T15:03:43.017Z,10.88
2023-02-11T15:06:24.311Z,12.02
2023-02-11T15:09:13.704Z,10.68
2023-02-11T15:11:47.842Z,10.52
2023-02-11T15:14:33.360Z,11.15
2023-02-11T15:17:11.577Z,10.48
2023-02-11T15:19:48.770Z,10.82
2023-02-11T15:22:30.583Z,11.18
2023-02-11T15:25:18.578Z,11.57
2023-02-11T15:27:57.268Z,10.95
2023-02-11T15:30:32.295Z,10.60
2023-02-11T15:33:06.451Z,11.40
2023-02-11T15:35:39.910Z,10.18
2023-02-11T15:38:13.981Z,9.75
2023-02-11T15:40:51.781Z,10.93
2023-02-11T15:43:20.350Z,10.85
2023-02-11T15:46:03.921Z,11.45
2023-02-11T15:48:54.579Z,10.70
2023-02-11T15:51:35.129Z,10.93
2023-02-11T15:54:06.741Z,11.00
2023-02-11T15:56:45.640Z,10.52
2023-02-11T15:59:20.718Z,10.50
2023-02-11T16:01:50.493Z,10.83
2023-02-11T16:04:23.224Z,9.35
2023-02-11T16:06:57.248Z,10.40
2023-02-11T16:09:35.626Z,11.25
2023-02-11T16:12:21.956Z,11.30
2023-02-11T16:14:53.276Z,11.85
2023-02-11T16:17:30.094Z,11.20
2023-02-11T16:19:58.820Z,10.32
2023-02-11T16:22:35.920Z,10.88
2023-02-11T16:25:04.075Z,10.60
2023-02-11T16:27:42.997Z,11.80
2023-02-11T16:30:38.378Z,11.10
2023-02-11T16:33:06.833Z,11.05
2023-02-11T16:35:35.023Z,10.45
2023-02-11T16:38:06.471Z,11.63
2023-02-11T16:40:34.967Z,11.45
2023-02-11T16:43:03.242Z,11.40
2023-02-11T16:45:32.215Z,12.23
2023-02-11T16:48:00.763Z,10.77
2023-02-11T16:50:30.142Z,11.68
2023-02-11T16:52:59.958Z,12.10
2023-02-11T16:55:27.695Z,12.23
2023-02-11T16:57:55.846Z,12.30
2023-02-11T17:00:24.549Z,12.43
2023-02-11T17:02:53.857Z,13.43
2023-02-11T17:05:25.292Z,12.38
2023-02-11T17:07:56.865Z,13.70
2023-02-11T17:10:27.656Z,12.82
2023-02-11T17:12:56.068Z,14.38
2023-02-11T17:15:24.173Z,12.07
2023-02-11T17:17:53.692Z,13.93
2023-02-11T17:20:25.714Z,12.68
2023-02-11T17:22:54.155Z,13.55
2023-02-11T17:25:24.037Z,12.55
2023-02-11T17:27:52.950Z,12.85
2023-02-11T17:30:27.488Z,14.00
2023-02-11T17:32:59.424Z,13.75
2023-02-11T17:35:28.409Z,13.13
2023-02-11T17:37:59.263Z,12.55
2023-02-11T17:40:27.637Z,13.43
2023-02-11T17:42:55.761Z,12.63
2023-02-11T17:45:23.979Z,14.00
2023-02-11T17:47:52.782Z,14.32
2023-02-11T17:50:21.284Z,14.13
2023-02-11T17:52:49.892Z,13.27
2023-02-11T17:55:19.771Z,13.48
2023-02-11T17:57:47.840Z,13.05
2023-02-11T18:00:16.786Z,13.23
2023-02-11T18:02:44.570Z,13.52
2023-02-11T18:05:15.309Z,14.35
2023-02-11T18:07:43.699Z,13.70
2023-02-11T18:10:12.621Z,13.88
2023-02-11T18:12:41.319Z,13.15
2023-02-11T18:15:10.137Z,13.48
2023-02-11T18:17:39.637Z,14.07
2023-02-11T18:20:09.363Z,12.55
2023-02-11T18:22:40.013Z,13.10
2023-02-11T18:25:11.702Z,12.75
2023-02-11T18:27:40.500Z,13.70
2023-02-11T18:30:17.811Z,14.20
2023-02-11T18:32:46.026Z,14.27
2023-02-11T18:35:16.678Z,13.88
2023-02-11T18:37:45.703Z,14.27
2023-02-11T18:40:15.588Z,13.32
2023-02-11T18:42:46.042Z,13.45
2023-02-11T18:45:16.070Z,12.68
2023-02-11T18:47:44.407Z,13.63
2023-02-11T18:50:15.312Z,13.35
2023-02-11T18:52:43.655Z,12.70
2023-02-11T18:55:11.795Z,14.20
2023-02-11T18:57:40.210Z,13.60
2023-02-11T19:00:12.047Z,13.65
2023-02-11T19:02:40.957Z,13.60
2023-02-11T19:05:09.745Z,12.73
2023-02-11T19:07:38.857Z,15.20
2023-02-11T19:10:08.274Z,14.73
2023-02-11T19:12:38.850Z,13.82
2023-02-11T19:15:09.292Z,13.77
2023-02-11T19:17:37.196Z,13.40
2023-02-11T19:20:06.750Z,14.98
2023-02-11T19:22:35.229Z,14.05
2023-02-11T19:25:03.841Z,14.25
2023-02-11T19:27:32.262Z,13.80
2023-02-11T19:30:00.641Z,13.88
2023-02-11T19:32:29.250Z,14.43
2023-02-11T19:35:00.548Z,13.23
2023-02-11T19:37:28.837Z,13.30
2023-02-11T19:39:57.063Z,14.13
2023-02-11T19:42:27.641Z,14.02
2023-02-11T19:45:00.778Z,13.75
2023-02-11T19:47:29.065Z,13.85
2023-02-11T19:49:58.897Z,14.95
2023-02-11T19:52:26.922Z,13.75
2023-02-11T19:54:55.304Z,14.40
2023-02-11T19:57:23.902Z,13.55
2023-02-11T19:59:56.279Z,14.02
2023-02-11T20:02:25.065Z,13.73
2023-02-11T20:04:53.502Z,13.95
2023-02-11T20:07:22.238Z,13.70
2023-02-11T20:09:53.871Z,14.95
2023-02-11T20:12:22.662Z,14.20
2023-02-11T20:14:50.983Z,13.82
2023-02-11T20:17:19.203Z,13.48
2023-02-11T20:19:47.658Z,14.52
2023-02-11T20:22:16.193Z,14.68
2023-02-11T20:24:45.042Z,14.48
2023-02-11T20:27:13.326Z,14.65
2023-02-11T20:29:41.738Z,14.88
2023-02-11T20:32:11.454Z,14.93
2023-02-11T20:34:40.068Z,14.55
2023-02-11T20:37:10.136Z,14.73
2023-02-11T20:39:41.559Z,13.93
2023-02-11T20:42:13.193Z,14.48
2023-02-11T20:44:41.758Z,14.50
2023-02-11T20:47:10.304Z,14.18
2023-02-11T20:49:37.948Z,15.45
2023-02-11T20:52:06.144Z,15.43
2023-02-11T20:54:34.525Z,15.00
2023-02-11T20:57:03.847Z,14.80
2023-02-11T20:59:32.487Z,14.75
2023-02-11T21:02:01.852Z,15.75
2023-02-11T21:04:32.917Z,14.20
2023-02-11T21:07:02.799Z,15.05
2023-02-11T21:09:34.872Z,15.13
2023-02-11T21:12:04.558Z,14.95
2023-02-11T21:14:34.619Z,15.57
2023-02-11T21:17:03.534Z,16.02
2023-02-11T21:19:31.809Z,15.38
2023-02-11T21:22:01.370Z,14.65
2023-02-11T21:24:31.210Z,16.05
2023-02-11T21:26:59.517Z,15.90
2023-02-11T21:29:27.265Z,16.40
2023-02-11T21:31:55.615Z,15.60
2023-02-11T21:34:24.206Z,15.02
2023-02-11T21:36:52.948Z,15.63
2023-02-11T21:39:22.388Z,14.55
2023-02-11T21:41:50.358Z,15.25
2023-02-11T21:44:22.267Z,14.77
2023-02-11T21:46:52.569Z,13.95
2023-02-11T21:49:20.357Z,13.93
2023-02-11T21:51:47.767Z,15.27
2023-02-11T21:54:16.215Z,14.80
2023-02-11T21:56:43.942Z,14.10
2023-02-11T21:59:18.315Z,13.90
2023-02-11T22:01:47.279Z,12.80
2023-02-11T22:04:14.505Z,13.95
2023-02-11T22:06:42.012Z,14.68
2023-02-11T22:09:11.155Z,14.70
2023-02-11T22:11:39.019Z,15.02
2023-02-11T22:14:09.999Z,13.70
2023-02-11T22:16:41.057Z,14.57
2023-02-11T22:19:09.382Z,14.35
2023-02-11T22:21:36.867Z,14.95
2023-02-11T22:24:04.711Z,15.45
2023-02-11T22:26:31.942Z,15.73
2023-02-11T22:28:59.100Z,15.43
2023-02-11T22:31:30.618Z,14.93
2023-02-11T22:33:59.403Z,15.10
2023-02-11T22:36:31.060Z,14.75
2023-02-11T22:39:09.244Z,14.57
2023-02-11T22:41:38.383Z,13.82
2023-02-11T22:44:05.733Z,14.27
2023-02-11T22:46:32.934Z,14.45
2023-02-11T22:49:00.275Z,15.07
2023-02-11T22:51:29.854Z,14.90
2023-02-11T22:53:59.347Z,13.75
2023-02-11T22:56:28.071Z,14.18
2023-02-11T22:58:58.630Z,14.02
2023-02-11T23:01:26.067Z,14.00
2023-02-11T23:03:53.326Z,13.88
2023-02-11T23:06:21.287Z,14.40
2023-02-11T23:08:48.448Z,12.90
2023-02-11T23:11:19.972Z,13.75
2023-02-11T23:13:49.084Z,13.90
2023-02-11T23:16:20.963Z,14.25
2023-02-11T23:18:49.525Z,13.82
2023-02-11T23:21:26.807Z,13.15
2023-02-11T23:23:57.723Z,12.68
2023-02-11T23:26:28.710Z,13.90
2023-02-11T23:28:57.423Z,13.75
2023-02-11T23:31:37.600Z,13.50
2023-02-11T23:34:07.664Z,13.55
2023-02-11T23:36:35.110Z,13.23
2023-02-11T23:39:02.473Z,13.50
2023-02-11T23:41:29.743Z,12.88
2023-02-11T23:43:57.985Z,12.80
2023-02-11T23:46:28.531Z,12.43
2023-02-11T23:48:55.708Z,13.30
2023-02-11T23:51:23.340Z,12.90
2023-02-11T23:53:54.156Z,14.30
2023-02-11T23:56:27.700Z,11.20
2023-02-11T23:58:58.757Z,12.18
